Time;durP1;ratioP1;P1;durP2;ratioP2;P2;SDS_P1;SDS_P2;PMS_P1;PMS_P2;Temp;Humidity;BMP_temperature;BMP_pressure;BME280_temperature;BME280_humidity;BME280_pressure;Samples;Min_cycle;Max_cycle;Signal;HPM_P1;HPM_P2
2021/04/10 00:00:43;;;;;;;0.00;0.00;;;10.00;99.90;;;;;;4999804;28;20034;-89
2021/04/10 00:03:10;;;;;;;0.00;0.00;;;10.00;99.90;;;;;;4996095;28;20839;-89
2021/04/10 00:05:36;;;;;;;0.00;0.00;;;10.10;99.90;;;;;;5007084;28;20030;-90
2021/04/10 00:08:02;;;;;;;0.10;0.10;;;10.00;99.90;;;;;;5001896;28;20054;-89
2021/04/10 00:10:29;;;;;;;0.10;0.10;;;10.00;99.90;;;;;;4989552;28;20030;-90
2021/04/10 00:12:56;;;;;;;0.40;0.40;;;10.00;99.90;;;;;;4989022;28;20037;-89
2021/04/10 00:15:23;;;;;;;0.10;0.10;;;10.00;99.90;;;;;;4989497;28;20033;-90
2021/04/10 00:17:49;;;;;;;0.13;0.13;;;10.00;99.90;;;;;;4988107;28;20346;-89
2021/04/10 00:20:18;;;;;;;0.13;0.13;;;10.00;99.90;;;;;;4990355;28;20079;-90
2021/04/10 00:22:44;;;;;;;0.00;0.00;;;10.00;99.90;;;;;;5004168;28;20038;-90
2021/04/10 00:25:11;;;;;;;0.10;0.10;;;9.90;99.90;;;;;;5007905;28;20549;-89
2021/04/10 00:27:37;;;;;;;0.17;0.17;;;10.00;99.90;;;;;;5006650;28;20056;-90
2021/04/10 00:30:04;;;;;;;0.00;0.00;;;10.00;99.90;;;;;;4989740;28;20065;-90
2021/04/10 00:32:30;;;;;;;2.85;1.65;;;10.00;99.90;;;;;;4989405;28;20050;-90
2021/04/10 00:34:56;;;;;;;0.00;0.00;;;9.90;99.90;;;;;;5000835;28;20032;-89
2021/04/10 00:37:21;;;;;;;1.25;0.08;;;9.90;99.90;;;;;;4995581;28;20112;-89
2021/04/10 00:39:47;;;;;;;0.20;0.20;;;10.00;99.90;;;;;;4994490;28;20026;-89
2021/04/10 00:42:13;;;;;;;12.35;0.90;;;9.90;99.90;;;;;;4995557;28;20048;-89
2021/04/10 00:44:39;;;;;;;0.10;0.10;;;9.90;99.90;;;;;;5006235;28;20040;-88
2021/04/10 00:47:05;;;;;;;0.00;0.00;;;9.90;99.90;;;;;;5007076;28;20116;-89
2021/04/10 00:49:30;;;;;;;0.13;0.13;;;9.90;99.90;;;;;;5007309;28;20517;-89
2021/04/10 00:51:57;;;;;;;1.75;1.05;;;9.80;99.90;;;;;;5006781;28;20124;-89
2021/04/10 00:54:23;;;;;;;0.00;0.00;;;9.80;99.90;;;;;;5008944;28;20038;-90
2021/04/10 00:56:49;;;;;;;0.22;0.22;;;9.80;99.90;;;;;;5009070;28;20033;-90
2021/04/10 00:59:15;;;;;;;0.10;0.10;;;9.80;99.90;;;;;;4996943;28;20525;-90
2021/04/10 01:01:41;;;;;;;0.00;0.00;;;9.80;99.90;;;;;;4987905;28;20121;-90
2021/04/10 01:04:07;;;;;;;0.00;0.00;;;9.70;99.90;;;;;;4994772;28;20422;-90
2021/04/10 01:06:33;;;;;;;0.00;0.00;;;9.70;99.90;;;;;;5006988;28;20041;-89
2021/04/10 01:08:59;;;;;;;12.40;0.55;;;9.80;99.90;;;;;;4996237;28;20438;-89
2021/04/10 01:11:47;;;;;;;0.20;0.20;;;9.70;99.90;;;;;;4992101;28;20490;-89
2021/04/10 01:14:34;;;;;;;0.30;0.30;;;9.70;99.90;;;;;;4992747;28;20144;-90
2021/04/10 01:17:31;;;;;;;0.00;0.00;;;9.70;99.90;;;;;;4993280;28;20085;-91
2021/04/10 01:20:28;;;;;;;0.30;0.20;;;9.60;99.90;;;;;;4994471;28;20045;-90
2021/04/10 01:23:32;;;;;;;0.13;0.13;;;9.60;99.90;;;;;;4992630;28;20034;-90
2021/04/10 01:26:01;;;;;;;0.10;0.10;;;9.60;99.90;;;;;;4992904;28;20390;-90
2021/04/10 01:28:50;;;;;;;0.00;0.00;;;9.70;99.90;;;;;;5019604;28;20022;-89
2021/04/10 01:31:18;;;;;;;0.10;0.10;;;9.60;99.90;;;;;;4990900;28;20033;-90
2021/04/10 01:33:51;;;;;;;0.00;0.00;;;9.60;99.90;;;;;;4992604;28;20038;-91
2021/04/10 01:36:20;;;;;;;0.08;0.08;;;9.60;99.90;;;;;;5004769;28;20090;-91
2021/04/10 01:38:49;;;;;;;0.10;0.10;;;9.50;99.90;;;;;;4993412;28;20048;-90
2021/04/10 01:41:17;;;;;;;0.10;0.10;;;9.50;99.90;;;;;;5004186;28;20056;-90
2021/04/10 01:43:44;;;;;;;0.00;0.00;;;9.50;99.90;;;;;;5011470;28;20108;-89
2021/04/10 01:46:12;;;;;;;0.00;0.00;;;9.50;99.90;;;;;;5010172;28;20560;-89
2021/04/10 01:48:42;;;;;;;0.00;0.00;;;9.40;99.90;;;;;;5002537;28;20041;-89
2021/04/10 01:51:08;;;;;;;0.00;0.00;;;9.50;99.90;;;;;;4998733;28;20025;-90
2021/04/10 01:53:35;;;;;;;0.10;0.10;;;9.40;99.90;;;;;;5006562;28;20153;-90
2021/04/10 01:56:02;;;;;;;0.13;0.13;;;9.40;99.90;;;;;;5011835;28;20022;-91
2021/04/10 01:58:29;;;;;;;0.00;0.00;;;9.40;99.90;;;;;;4997343;28;20038;-91
2021/04/10 02:00:56;;;;;;;0.10;0.10;;;9.40;99.90;;;;;;5008885;28;20026;-90
2021/04/10 02:03:21;;;;;;;;;;;9.40;99.90;;;;;;4990844;28;20042;-90
2021/04/10 02:05:48;;;;;;;0.10;0.10;;;9.50;99.90;;;;;;5010181;28;19906;-89
2021/04/10 02:08:15;;;;;;;0.00;0.00;;;9.40;99.90;;;;;;5002948;28;20037;-89
2021/04/10 02:10:41;;;;;;;;;;;9.40;99.90;;;;;;4990806;28;20031;-91
2021/04/10 02:13:09;;;;;;;0.03;0.03;;;9.40;99.90;;;;;;4993178;28;19976;-90
2021/04/10 02:15:34;;;;;;;0.10;0.10;;;9.40;99.90;;;;;;5005999;28;20046;-91
2021/04/10 02:18:01;;;;;;;0.10;0.10;;;9.40;99.90;;;;;;5010046;28;20025;-91
2021/04/10 02:20:27;;;;;;;0.40;0.40;;;9.40;99.90;;;;;;5007798;28;20088;-90
2021/04/10 02:22:56;;;;;;;0.00;0.00;;;9.40;99.90;;;;;;4999582;28;20025;-91
2021/04/10 02:25:26;;;;;;;0.00;0.00;;;9.40;99.90;;;;;;5012405;28;20038;-90
2021/04/10 02:27:56;;;;;;;0.10;0.10;;;9.40;99.90;;;;;;5009476;28;20413;-90
2021/04/10 02:30:23;;;;;;;0.10;0.10;;;9.40;99.90;;;;;;5010420;28;20088;-91
2021/04/10 02:33:01;;;;;;;0.00;0.00;;;9.40;99.90;;;;;;5006161;28;20034;-90
2021/04/10 02:35:30;;;;;;;0.10;0.10;;;9.40;99.90;;;;;;4991411;28;20034;-90
2021/04/10 02:37:56;;;;;;;0.00;0.00;;;9.30;99.90;;;;;;4990738;28;20049;-91
2021/04/10 02:40:27;;;;;;;0.05;0.05;;;9.20;99.90;;;;;;4991200;28;20033;-90
2021/04/10 02:42:53;;;;;;;0.10;0.10;;;9.20;99.90;;;;;;5008373;28;20026;-91
2021/04/10 02:45:27;;;;;;;0.10;0.10;;;9.10;99.90;;;;;;4998505;28;20034;-90
2021/04/10 02:47:58;;;;;;;0.10;0.10;;;9.00;99.90;;;;;;5009967;28;20113;-90
2021/04/10 02:50:27;;;;;;;0.10;0.10;;;9.10;99.90;;;;;;5007509;28;20041;-90
2021/04/10 02:52:55;;;;;;;0.10;0.10;;;9.00;99.90;;;;;;4998335;28;20084;-90
2021/04/10 02:55:36;;;;;;;0.10;0.10;;;9.00;99.90;;;;;;5010061;28;20026;-90
2021/04/10 02:58:05;;;;;;;0.38;0.38;;;8.80;99.90;;;;;;5008473;28;20033;-90
2021/04/10 03:00:32;;;;;;;0.00;0.00;;;8.80;99.90;;;;;;5004404;28;20025;-89
2021/04/10 03:03:01;;;;;;;0.20;0.20;;;8.80;99.90;;;;;;4989670;28;20034;-89
2021/04/10 03:05:27;;;;;;;0.10;0.10;;;9.00;99.90;;;;;;4988596;28;20066;-89
2021/04/10 03:07:53;;;;;;;0.10;0.10;;;9.00;99.90;;;;;;4996827;28;20034;-90
2021/04/10 03:10:19;;;;;;;0.00;0.00;;;9.00;99.90;;;;;;5005690;28;20104;-90
2021/04/10 03:12:46;;;;;;;0.00;0.00;;;8.90;99.90;;;;;;4996745;28;20493;-91
2021/04/10 03:15:13;;;;;;;0.55;0.45;;;9.00;99.90;;;;;;5009325;28;20033;-91
2021/04/10 03:17:40;;;;;;;0.00;0.00;;;9.10;99.90;;;;;;5007990;28;20030;-90
2021/04/10 03:20:11;;;;;;;0.00;0.00;;;9.20;99.90;;;;;;4990379;28;20521;-90
2021/04/10 03:22:37;;;;;;;0.10;0.10;;;9.30;99.90;;;;;;5024647;28;20042;-89
2021/04/10 03:25:04;;;;;;;0.00;0.00;;;9.30;99.90;;;;;;5016114;28;20026;-90
2021/04/10 03:27:30;;;;;;;0.10;0.10;;;9.40;99.90;;;;;;5004836;28;20034;-89
2021/04/10 03:29:57;;;;;;;0.00;0.00;;;9.40;99.90;;;;;;4992693;28;20032;-89
2021/04/10 03:32:23;;;;;;;0.00;0.00;;;9.40;99.90;;;;;;5006864;28;20045;-90
2021/04/10 03:34:49;;;;;;;0.03;0.03;;;9.40;99.90;;;;;;4990603;28;20026;-89
2021/04/10 03:37:15;;;;;;;0.10;0.10;;;9.30;99.90;;;;;;4990039;28;20039;-90
2021/04/10 03:39:41;;;;;;;0.00;0.00;;;9.30;99.90;;;;;;4989842;28;20479;-90
2021/04/10 03:42:09;;;;;;;0.10;0.10;;;9.30;99.90;;;;;;5005712;28;20050;-89
2021/04/10 03:44:35;;;;;;;0.10;0.10;;;9.40;99.90;;;;;;5006633;28;20025;-89
2021/04/10 03:47:01;;;;;;;0.00;0.00;;;9.40;99.90;;;;;;5007099;28;20560;-90
2021/04/10 03:49:26;;;;;;;0.00;0.00;;;9.40;99.90;;;;;;5008799;28;20035;-90
2021/04/10 03:51:52;;;;;;;0.30;0.30;;;9.30;99.90;;;;;;5002322;28;20165;-91
2021/04/10 03:54:18;;;;;;;0.00;0.00;;;9.40;99.90;;;;;;5000284;28;20653;-89
2021/04/10 03:56:44;;;;;;;0.00;0.00;;;9.30;99.90;;;;;;5009623;28;20109;-89
2021/04/10 03:59:09;;;;;;;0.15;0.15;;;9.30;99.90;;;;;;5002199;28;20021;-88
2021/04/10 04:01:35;;;;;;;0.00;0.00;;;9.40;99.90;;;;;;4999021;28;20126;-89
2021/04/10 04:04:01;;;;;;;0.10;0.10;;;9.40;99.90;;;;;;5004796;28;20026;-88
2021/04/10 04:06:26;;;;;;;5.38;0.85;;;9.40;99.90;;;;;;4989645;28;20030;-88
2021/04/10 04:08:52;;;;;;;1.98;0.90;;;9.50;99.90;;;;;;5003058;28;20026;-88
2021/04/10 04:11:18;;;;;;;0.10;0.10;;;9.40;99.90;;;;;;4999909;28;20061;-88
2021/04/10 04:13:44;;;;;;;0.00;0.00;;;9.40;99.90;;;;;;5008407;28;20077;-88
2021/04/10 04:16:10;;;;;;;0.00;0.00;;;9.40;99.90;;;;;;5009291;28;20029;-87
2021/04/10 04:18:35;;;;;;;2.50;0.90;;;9.50;99.90;;;;;;5009099;28;20030;-87
2021/04/10 04:21:01;;;;;;;0.10;0.10;;;9.50;99.90;;;;;;5005517;28;20069;-86
2021/04/10 04:23:27;;;;;;;0.20;0.20;;;9.50;99.90;;;;;;4991186;28;20041;-87
2021/04/10 04:25:53;;;;;;;0.43;0.43;;;9.50;99.90;;;;;;5004561;28;20030;-88
2021/04/10 04:28:18;;;;;;;0.10;0.10;;;9.50;99.90;;;;;;4991361;28;20042;-89
2021/04/10 04:30:44;;;;;;;0.00;0.00;;;9.50;99.90;;;;;;5002140;28;20928;-88
2021/04/10 04:33:10;;;;;;;0.10;0.10;;;9.50;99.90;;;;;;5011266;28;20565;-88
2021/04/10 04:35:36;;;;;;;0.28;0.28;;;9.50;99.90;;;;;;4989384;28;20018;-87
2021/04/10 04:38:02;;;;;;;0.00;0.00;;;9.50;99.90;;;;;;5005726;28;20022;-88
2021/04/10 04:40:27;;;;;;;0.10;0.10;;;9.60;99.90;;;;;;5004790;28;20053;-88
2021/04/10 04:42:53;;;;;;;0.03;0.03;;;9.50;99.90;;;;;;4999229;28;20027;-89
2021/04/10 04:45:19;;;;;;;0.00;0.00;;;9.60;99.90;;;;;;5009808;28;20037;-88
2021/04/10 04:47:45;;;;;;;0.00;0.00;;;9.50;99.90;;;;;;5004387;28;20030;-89
2021/04/10 04:50:11;;;;;;;0.00;0.00;;;9.60;99.90;;;;;;5008171;28;20521;-88
2021/04/10 04:52:37;;;;;;;0.05;0.05;;;9.60;99.90;;;;;;5002039;28;20052;-89
2021/04/10 04:55:03;;;;;;;0.00;0.00;;;9.50;99.90;;;;;;4994958;28;20773;-89
2021/04/10 04:57:30;;;;;;;0.05;0.05;;;9.60;99.90;;;;;;5004694;28;20026;-89
2021/04/10 04:59:55;;;;;;;0.10;0.10;;;9.50;99.90;;;;;;5010550;28;20076;-89
2021/04/10 05:02:21;;;;;;;0.10;0.10;;;9.50;99.90;;;;;;5004737;28;20034;-89
2021/04/10 05:04:47;;;;;;;0.00;0.00;;;9.60;99.90;;;;;;5014374;28;20080;-88
2021/04/10 05:07:13;;;;;;;0.00;0.00;;;9.60;99.90;;;;;;4998853;28;20046;-91
2021/04/10 05:09:38;;;;;;;0.08;0.08;;;9.70;99.90;;;;;;5008878;28;20440;-90
2021/04/10 05:12:06;;;;;;;0.10;0.10;;;9.60;99.90;;;;;;5008488;28;20037;-90
2021/04/10 05:14:31;;;;;;;0.00;0.00;;;9.60;99.90;;;;;;5005566;28;20531;-90
2021/04/10 05:16:57;;;;;;;0.00;0.00;;;9.70;99.90;;;;;;5007663;28;20027;-87
2021/04/10 05:19:25;;;;;;;0.00;0.00;;;9.70;99.90;;;;;;4997961;28;20029;-89
2021/04/10 05:21:51;;;;;;;0.10;0.10;;;9.70;99.90;;;;;;5010795;28;20175;-87
2021/04/10 05:24:17;;;;;;;0.10;0.10;;;9.70;99.90;;;;;;5002851;28;20041;-89
2021/04/10 05:26:43;;;;;;;0.03;0.03;;;9.60;99.90;;;;;;5010224;28;20355;-88
2021/04/10 05:29:09;;;;;;;0.10;0.10;;;9.60;99.90;;;;;;5014201;28;20031;-89
2021/04/10 05:31:35;;;;;;;0.00;0.00;;;9.60;99.90;;;;;;5006684;28;20034;-89
2021/04/10 05:34:01;;;;;;;0.17;0.17;;;9.60;99.90;;;;;;5000788;28;20463;-90
2021/04/10 05:36:26;;;;;;;0.55;0.40;;;9.70;99.90;;;;;;5003892;28;20072;-89
2021/04/10 05:38:52;;;;;;;0.10;0.10;;;9.70;99.90;;;;;;4994146;28;20117;-90
2021/04/10 05:41:18;;;;;;;0.10;0.10;;;9.70;99.90;;;;;;4999818;28;20030;-88
2021/04/10 05:43:44;;;;;;;0.00;0.00;;;9.80;99.90;;;;;;4995004;28;20077;-87
2021/04/10 05:46:10;;;;;;;0.00;0.00;;;9.80;99.90;;;;;;4992520;28;20456;-88
2021/04/10 05:48:36;;;;;;;0.10;0.10;;;9.80;99.90;;;;;;4994977;28;20021;-87
2021/04/10 05:51:02;;;;;;;0.05;0.05;;;9.80;99.90;;;;;;5011451;28;20034;-87
2021/04/10 05:53:28;;;;;;;0.40;0.40;;;9.90;99.90;;;;;;4997503;28;20034;-88
2021/04/10 05:55:55;;;;;;;0.00;0.00;;;9.90;99.90;;;;;;4995940;28;20837;-93
2021/04/10 05:58:21;;;;;;;0.10;0.10;;;10.00;99.90;;;;;;4991240;28;20026;-89
2021/04/10 06:00:47;;;;;;;0.08;0.08;;;10.10;99.90;;;;;;4995130;28;20402;-89
2021/04/10 06:03:15;;;;;;;0.00;0.00;;;10.10;99.90;;;;;;5006464;28;20042;-88
2021/04/10 06:05:44;;;;;;;0.75;0.75;;;10.10;99.90;;;;;;5002268;28;20513;-89
2021/04/10 06:08:10;;;;;;;0.10;0.10;;;10.20;99.90;;;;;;5001699;28;20065;-87
2021/04/10 06:10:35;;;;;;;0.00;0.00;;;10.20;99.90;;;;;;4991429;28;20053;-88
2021/04/10 06:13:01;;;;;;;0.10;0.10;;;10.30;99.90;;;;;;4999751;28;20041;-88
2021/04/10 06:15:27;;;;;;;0.00;0.00;;;10.40;99.90;;;;;;5001839;28;20105;-87
2021/04/10 06:17:53;;;;;;;0.00;0.00;;;10.50;99.90;;;;;;4993675;28;20030;-87
2021/04/10 06:20:20;;;;;;;0.00;0.00;;;10.50;99.90;;;;;;5012149;28;20038;-86
2021/04/10 06:22:46;;;;;;;0.00;0.00;;;10.50;99.90;;;;;;4999296;28;20394;-86
2021/04/10 06:25:12;;;;;;;0.00;0.00;;;10.70;99.90;;;;;;5009784;28;20044;-84
2021/04/10 06:27:38;;;;;;;0.00;0.00;;;10.90;99.90;;;;;;5007601;28;20034;-86
2021/04/10 06:30:06;;;;;;;0.00;0.00;;;10.90;99.90;;;;;;4991878;28;20027;-86
2021/04/10 06:32:31;;;;;;;0.00;0.00;;;11.10;99.90;;;;;;4991180;28;20037;-86
2021/04/10 06:34:57;;;;;;;0.17;0.17;;;10.90;99.90;;;;;;4991538;28;20014;-85
2021/04/10 06:37:23;;;;;;;0.00;0.00;;;10.80;99.90;;;;;;4994222;28;20498;-86
2021/04/10 06:39:49;;;;;;;0.00;0.00;;;10.90;99.90;;;;;;4999392;28;20399;-85
2021/04/10 06:42:15;;;;;;;0.10;0.10;;;11.10;99.90;;;;;;5003215;28;20501;-86
2021/04/10 06:44:40;;;;;;;0.00;0.00;;;11.60;99.90;;;;;;5010121;28;20038;-86
2021/04/10 06:47:08;;;;;;;0.00;0.00;;;11.40;99.90;;;;;;5011332;28;20041;-86
2021/04/10 06:49:36;;;;;;;0.10;0.10;;;11.50;99.90;;;;;;4996002;28;20391;-86
2021/04/10 06:52:01;;;;;;;0.00;0.00;;;11.90;99.90;;;;;;4992088;28;20030;-87
2021/04/10 06:54:39;;;;;;;9.20;0.95;;;12.80;99.90;;;;;;4998959;28;20085;-83
2021/04/10 06:57:15;;;;;;;0.10;0.10;;;14.50;99.90;;;;;;4996443;28;20418;-82
2021/04/10 06:59:49;;;;;;;0.08;0.08;;;15.20;99.90;;;;;;5005441;28;20053;-83
2021/04/10 07:02:15;;;;;;;0.03;0.03;;;15.50;99.90;;;;;;5005543;28;20133;-84
2021/04/10 07:04:41;;;;;;;0.05;0.05;;;15.00;99.90;;;;;;5013219;28;20443;-84
2021/04/10 07:07:08;;;;;;;0.30;0.30;;;14.40;99.90;;;;;;5001422;28;20117;-83
2021/04/10 07:09:35;;;;;;;0.00;0.00;;;14.00;99.90;;;;;;5005968;28;20371;-84
2021/04/10 07:12:03;;;;;;;;;;;14.80;99.90;;;;;;4992020;28;20517;-84
2021/04/10 07:14:29;;;;;;;0.10;0.10;;;13.80;99.90;;;;;;4997703;28;19955;-83
2021/04/10 07:16:57;;;;;;;0.00;0.00;;;13.40;99.90;;;;;;5002005;28;20549;-83
2021/04/10 07:19:25;;;;;;;0.00;0.00;;;12.50;99.90;;;;;;5005177;28;20038;-85
2021/04/10 07:22:20;;;;;;;0.30;0.30;;;12.80;99.90;;;;;;4995549;28;20030;-84
2021/04/10 07:24:51;;;;;;;0.00;0.00;;;12.20;99.90;;;;;;4999836;28;20042;-85
2021/04/10 07:27:19;;;;;;;0.00;0.00;;;12.50;99.90;;;;;;4997977;28;20117;-84
2021/04/10 07:29:47;;;;;;;0.00;0.00;;;12.40;99.90;;;;;;5006517;28;20092;-86
2021/04/10 07:32:36;;;;;;;0.00;0.00;;;12.50;99.90;;;;;;5020577;28;20037;-87
2021/04/10 07:35:05;;;;;;;0.00;0.00;;;12.60;99.90;;;;;;5002591;28;20760;-88
2021/04/10 07:37:50;;;;;;;0.00;0.00;;;13.40;99.90;;;;;;5023691;28;20441;-85
2021/04/10 07:40:23;;;;;;;0.05;0.05;;;13.90;99.90;;;;;;5009101;28;20033;-86
2021/04/10 07:42:50;;;;;;;0.08;0.08;;;13.20;99.90;;;;;;5002219;28;20022;-86
2021/04/10 07:45:35;;;;;;;0.03;0.03;;;12.80;99.90;;;;;;5005837;28;20069;-85
2021/04/10 07:48:13;;;;;;;0.00;0.00;;;12.40;99.90;;;;;;5005340;28;20025;-86
2021/04/10 07:50:41;;;;;;;0.00;0.00;;;12.50;99.90;;;;;;5004097;28;20108;-87
2021/04/10 07:53:28;;;;;;;0.00;0.00;;;12.80;99.90;;;;;;5005685;28;20093;-85
2021/04/10 07:56:08;;;;;;;0.00;0.00;;;12.60;99.90;;;;;;5004718;28;20075;-86
2021/04/10 07:58:36;;;;;;;5.28;1.90;;;12.60;99.90;;;;;;5022053;28;20049;-88
2021/04/10 08:01:11;;;;;;;0.00;0.00;;;12.60;99.90;;;;;;5006298;28;20053;-88
2021/04/10 08:03:39;;;;;;;0.00;0.00;;;12.50;99.90;;;;;;5016207;28;20032;-88
2021/04/10 08:06:14;;;;;;;0.00;0.00;;;12.50;99.90;;;;;;4996937;28;20039;-86
2021/04/10 08:08:57;;;;;;;0.00;0.00;;;12.30;99.90;;;;;;4997978;28;20111;-87
2021/04/10 08:11:39;;;;;;;0.00;0.00;;;12.40;99.90;;;;;;4993435;28;20034;-87
2021/04/10 08:14:14;;;;;;;0.10;0.10;;;12.50;99.90;;;;;;5004920;28;20113;-87
2021/04/10 08:16:44;;;;;;;0.00;0.00;;;12.70;99.90;;;;;;5022538;28;20045;-86
2021/04/10 08:19:12;;;;;;;0.00;0.00;;;12.90;99.90;;;;;;5006755;28;20117;-85
2021/04/10 08:21:45;;;;;;;0.70;0.30;;;12.80;99.90;;;;;;5011829;28;20061;-86
2021/04/10 08:24:21;;;;;;;0.00;0.00;;;12.80;99.90;;;;;;5006830;28;20022;-87
2021/04/10 08:26:59;;;;;;;0.00;0.00;;;12.80;99.90;;;;;;5024190;28;20033;-86
2021/04/10 08:29:26;;;;;;;0.30;0.30;;;13.00;99.90;;;;;;5005604;28;20072;-83
2021/04/10 08:31:56;;;;;;;0.00;0.00;;;12.90;99.90;;;;;;5020768;28;20045;-88
2021/04/10 08:34:26;;;;;;;0.00;0.00;;;12.90;99.90;;;;;;5005285;28;20057;-87
2021/04/10 08:37:03;;;;;;;0.10;0.10;;;13.10;99.90;;;;;;5004343;28;20053;-85
2021/04/10 08:39:41;;;;;;;0.00;0.00;;;13.00;99.90;;;;;;5007636;28;20026;-87
2021/04/10 08:42:15;;;;;;;0.10;0.10;;;12.90;99.90;;;;;;5005731;28;20034;-87
2021/04/10 08:44:44;;;;;;;0.00;0.00;;;12.80;99.90;;;;;;5009463;28;20087;-86
2021/04/10 08:47:10;;;;;;;0.10;0.10;;;12.90;99.90;;;;;;5024854;28;20032;-85
2021/04/10 08:49:42;;;;;;;0.10;0.10;;;13.30;99.90;;;;;;5006239;28;20096;-85
2021/04/10 08:52:10;;;;;;;0.00;0.00;;;12.90;99.90;;;;;;5004095;28;20034;-86
2021/04/10 08:54:40;;;;;;;0.10;0.10;;;12.90;99.90;;;;;;5003327;28;20453;-85
2021/04/10 08:57:10;;;;;;;0.08;0.08;;;13.00;99.90;;;;;;5006017;28;20030;-84
2021/04/10 08:59:46;;;;;;;0.00;0.00;;;13.40;99.90;;;;;;5008058;28;20079;-83
2021/04/10 09:02:17;;;;;;;0.00;0.00;;;13.40;99.90;;;;;;5006083;28;20675;-86
2021/04/10 09:04:59;;;;;;;0.10;0.10;;;13.80;99.90;;;;;;5020292;28;20564;-86
2021/04/10 09:07:51;;;;;;;0.10;0.10;;;14.00;99.90;;;;;;5018318;28;20033;-86
2021/04/10 09:10:28;;;;;;;0.13;0.13;;;13.90;99.90;;;;;;4994498;28;20141;-87
2021/04/10 09:13:08;;;;;;;0.00;0.00;;;14.00;99.90;;;;;;5006088;28;20083;-88
2021/04/10 09:15:36;;;;;;;0.10;0.10;;;14.30;99.90;;;;;;5001701;28;20565;-87
2021/04/10 09:18:06;;;;;;;0.00;0.00;;;14.00;99.90;;;;;;4980148;28;20116;-89
2021/04/10 09:23:31;;;;;;;0.10;0.10;;;14.70;99.90;;;;;;4997512;28;20108;-89
2021/04/10 09:26:21;;;;;;;0.10;0.10;;;14.80;99.90;;;;;;5017621;28;20033;-88
2021/04/10 09:28:56;;;;;;;0.10;0.10;;;13.90;99.90;;;;;;5005657;28;20037;-87
2021/04/10 09:31:51;;;;;;;0.00;0.00;;;13.90;99.90;;;;;;5001203;28;20022;-87
2021/04/10 09:34:48;;;;;;;0.00;0.00;;;13.80;99.90;;;;;;5003901;28;20073;-86
2021/04/10 09:37:24;;;;;;;0.10;0.10;;;13.70;99.90;;;;;;4998236;28;20515;-87
2021/04/10 09:40:23;;;;;;;0.10;0.10;;;13.60;99.90;;;;;;5018328;28;20053;-87
2021/04/10 09:42:53;;;;;;;0.00;0.00;;;13.30;99.90;;;;;;5001588;28;20022;-89
2021/04/10 09:45:25;;;;;;;0.00;0.00;;;12.40;99.90;;;;;;5002596;28;20112;-88
2021/04/10 09:48:01;;;;;;;0.00;0.00;;;12.10;99.90;;;;;;5003160;28;20045;-88
2021/04/10 09:50:45;;;;;;;0.00;0.00;;;12.20;99.90;;;;;;5022591;28;20510;-87
2021/04/10 09:53:16;;;;;;;0.00;0.00;;;11.80;99.90;;;;;;5006504;28;20030;-88
2021/04/10 09:55:45;;;;;;;0.00;0.00;;;11.40;27.10;;;;;;5008090;28;20822;-89
2021/04/10 09:58:14;;;;;;;0.00;0.00;;;11.90;99.90;;;;;;5022312;28;20124;-89
2021/04/10 10:00:42;;;;;;;0.10;0.10;;;12.20;99.90;;;;;;5003546;28;20088;-89
2021/04/10 10:03:09;;;;;;;0.00;0.00;;;12.30;99.90;;;;;;5002653;28;20387;-88
2021/04/10 10:05:42;;;;;;;0.00;0.00;;;12.70;99.90;;;;;;5002544;28;20030;-88
2021/04/10 10:08:15;;;;;;;0.00;0.00;;;12.90;99.90;;;;;;5003500;28;20038;-88
2021/04/10 10:10:55;;;;;;;0.22;0.20;;;13.00;99.90;;;;;;5005957;28;20057;-88
2021/04/10 10:13:25;;;;;;;0.00;0.00;;;13.00;99.90;;;;;;5019009;28;20081;-88
2021/04/10 10:15:53;;;;;;;0.00;0.00;;;13.10;99.90;;;;;;5007888;28;20112;-88
2021/04/10 10:18:26;;;;;;;0.10;0.10;;;13.20;99.90;;;;;;5005620;28;20030;-86
2021/04/10 10:20:59;;;;;;;0.00;0.00;;;13.30;99.90;;;;;;4999123;28;20045;-88
2021/04/10 10:23:29;;;;;;;0.00;0.00;;;13.70;99.90;;;;;;4998316;28;20038;-89
2021/04/10 10:26:06;;;;;;;0.10;0.10;;;13.70;99.90;;;;;;5004206;28;20037;-89
2021/04/10 10:28:33;;;;;;;0.00;0.00;;;13.90;99.90;;;;;;5018340;28;20072;-89
2021/04/10 10:31:07;;;;;;;0.00;0.00;;;14.20;99.90;;;;;;5006859;28;20057;-89
2021/04/10 10:33:33;;;;;;;0.00;0.00;;;14.50;99.90;;;;;;5008004;28;20057;-90
2021/04/10 10:36:00;;;;;;;0.00;0.00;;;14.30;99.90;;;;;;5007362;28;20036;-90
2021/04/10 10:38:35;;;;;;;0.00;0.00;;;14.20;99.90;;;;;;4995327;28;20061;-90
2021/04/10 10:41:01;;;;;;;0.10;0.10;;;13.90;99.90;;;;;;5021394;28;20177;-91
2021/04/10 10:43:27;;;;;;;0.00;0.00;;;13.90;99.90;;;;;;5006476;28;20464;-90
2021/04/10 10:45:58;;;;;;;0.10;0.10;;;14.20;99.90;;;;;;5006970;28;20038;-90
2021/04/10 10:48:31;;;;;;;0.00;0.00;;;14.50;99.90;;;;;;5018718;28;20532;-90
2021/04/10 10:51:00;;;;;;;5.25;0.30;;;14.70;99.90;;;;;;5024090;28;20057;-91
2021/04/10 10:53:35;;;;;;;0.00;0.00;;;14.60;99.90;;;;;;5008525;28;20513;-90
2021/04/10 10:56:06;;;;;;;0.00;0.00;;;15.20;99.90;;;;;;5006680;28;20065;-90
2021/04/10 10:58:48;;;;;;;0.00;0.00;;;14.90;99.90;;;;;;4998801;28;20105;-90
2021/04/10 11:01:26;;;;;;;0.00;0.00;;;15.90;99.90;;;;;;5020034;28;20113;-91
2021/04/10 11:04:04;;;;;;;0.10;0.10;;;16.10;99.90;;;;;;5000481;28;20018;-90
2021/04/10 11:06:32;;;;;;;0.00;0.00;;;16.80;99.90;;;;;;4992986;28;20675;-90
2021/04/10 11:09:04;;;;;;;1.17;0.52;;;16.10;99.90;;;;;;5012801;28;20108;-90
2021/04/10 11:11:39;;;;;;;18.73;0.40;;;16.30;99.90;;;;;;4996368;28;20026;-90
2021/04/10 11:14:05;;;;;;;0.00;0.00;;;15.70;99.90;;;;;;5005276;28;20034;-90
2021/04/10 11:16:32;;;;;;;0.00;0.00;;;15.50;99.90;;;;;;5007839;28;20097;-90
2021/04/10 11:18:59;;;;;;;0.00;0.00;;;15.30;99.90;;;;;;5002254;28;20135;-89
2021/04/10 11:21:30;;;;;;;0.00;0.00;;;15.90;99.90;;;;;;5005373;28;20125;-91
2021/04/10 11:23:56;;;;;;;0.00;0.00;;;15.80;99.90;;;;;;5018884;28;20049;-91
2021/04/10 11:26:32;;;;;;;0.10;0.10;;;16.00;99.90;;;;;;5022790;28;20026;-89
2021/04/10 11:29:43;;;;;;;0.05;0.05;;;15.80;99.90;;;;;;5008598;28;20029;-88
2021/04/10 11:32:19;;;;;;;0.10;0.10;;;15.90;99.90;;;;;;4994991;28;20108;-88
2021/04/10 11:34:48;;;;;;;0.00;0.00;;;15.40;99.90;;;;;;5002168;28;20034;-89
2021/04/10 11:37:42;;;;;;;0.10;0.10;;;15.70;99.90;;;;;;5015249;28;20030;-88
2021/04/10 11:40:28;;;;;;;0.10;0.10;;;16.20;99.90;;;;;;4994727;28;20072;-89
2021/04/10 11:42:59;;;;;;;0.00;0.00;;;15.70;99.90;;;;;;5017916;28;20407;-89
2021/04/10 11:45:42;;;;;;;0.05;0.05;;;15.90;99.90;;;;;;4999438;28;20038;-90
2021/04/10 11:48:22;;;;;;;0.10;0.10;;;16.40;99.90;;;;;;4998984;28;20108;-90
2021/04/10 11:50:56;;;;;;;0.00;0.00;;;15.80;99.90;;;;;;4998771;28;20116;-88
2021/04/10 11:53:26;;;;;;;0.00;0.00;;;15.80;99.90;;;;;;4994830;28;20038;-90
2021/04/10 11:55:52;;;;;;;0.10;0.10;;;16.00;99.90;;;;;;5006045;28;20406;-91
2021/04/10 11:58:36;;;;;;;0.10;0.10;;;16.10;99.90;;;;;;5001013;28;20023;-91
2021/04/10 12:01:07;;;;;;;0.00;0.00;;;16.60;99.90;;;;;;5002024;28;20029;-89
2021/04/10 12:03:45;;;;;;;0.00;0.00;;;16.30;99.90;;;;;;5006116;28;20030;-92
2021/04/10 12:06:37;;;;;;;0.10;0.10;;;16.30;99.90;;;;;;5003830;28;20509;-90
2021/04/10 12:09:06;;;;;;;0.10;0.10;;;16.50;99.90;;;;;;4998290;28;20030;-89
2021/04/10 12:11:33;;;;;;;0.05;0.05;;;16.20;99.90;;;;;;5015819;28;20030;-89
2021/04/10 12:14:01;;;;;;;0.00;0.00;;;15.70;99.90;;;;;;4998490;28;20022;-90
2021/04/10 12:16:29;;;;;;;0.10;0.10;;;15.60;99.90;;;;;;5000034;28;20096;-89
2021/04/10 12:19:00;;;;;;;0.00;0.00;;;15.70;99.90;;;;;;5001896;28;20072;-90
2021/04/10 12:21:27;;;;;;;0.17;0.17;;;15.60;99.90;;;;;;4982831;28;20129;-89
2021/04/10 12:23:55;;;;;;;0.10;0.10;;;15.70;99.90;;;;;;5015978;28;20505;-90
2021/04/10 12:26:20;;;;;;;0.00;0.00;;;16.00;99.90;;;;;;5002842;28;20081;-91
2021/04/10 12:28:46;;;;;;;0.00;0.00;;;15.90;99.90;;;;;;5002311;28;20112;-90
2021/04/10 12:31:12;;;;;;;0.10;0.10;;;16.00;99.90;;;;;;5001148;28;20038;-90
2021/04/10 12:33:40;;;;;;;0.10;0.10;;;16.70;99.60;;;;;;5007912;28;20785;-90
2021/04/10 12:36:07;;;;;;;0.00;0.00;;;16.30;99.90;;;;;;4993770;28;20050;-90
2021/04/10 12:38:34;;;;;;;0.10;0.10;;;15.90;99.90;;;;;;4999064;28;20030;-90
2021/04/10 12:41:00;;;;;;;0.10;0.10;;;15.90;99.90;;;;;;4999223;28;20126;-89
2021/04/10 12:43:26;;;;;;;0.00;0.00;;;15.40;99.90;;;;;;4996517;28;20089;-89
2021/04/10 12:45:52;;;;;;;0.07;0.07;;;15.30;99.90;;;;;;4997718;28;20465;-90
2021/04/10 12:48:18;;;;;;;0.10;0.10;;;15.30;99.90;;;;;;5000474;28;20312;-90
2021/04/10 12:50:44;;;;;;;0.00;0.00;;;15.40;99.90;;;;;;5016455;28;20540;-90
2021/04/10 12:53:11;;;;;;;0.10;0.10;;;15.40;99.90;;;;;;4993283;28;20035;-89
2021/04/10 12:55:43;;;;;;;0.32;0.30;;;15.20;99.90;;;;;;4994099;28;20029;-90
2021/04/10 12:58:09;;;;;;;0.10;0.10;;;15.10;99.90;;;;;;5018388;28;20026;-92
2021/04/10 13:00:35;;;;;;;0.00;0.00;;;15.10;99.90;;;;;;4999875;28;20026;-90
2021/04/10 13:03:07;;;;;;;0.10;0.10;;;15.00;99.90;;;;;;4999330;28;20072;-89
2021/04/10 13:05:35;;;;;;;0.03;0.03;;;14.90;99.90;;;;;;4965337;28;20034;-89
2021/04/10 13:08:01;;;;;;;0.10;0.10;;;15.00;99.90;;;;;;5001288;28;20058;-90
2021/04/10 13:10:27;;;;;;;0.00;0.00;;;15.00;99.90;;;;;;5006486;28;20084;-90